createdAt,value
2023-04-03T00:02:37.261Z,92.00
2023-04-03T00:07:00.540Z,91.32
2023-04-03T00:11:13.157Z,91.22
2023-04-03T00:15:18.992Z,90.55
2023-04-03T00:19:54.439Z,90.90
2023-04-03T00:24:08.539Z,90.73
2023-04-03T00:28:29.612Z,90.43
2023-04-03T00:33:10.162Z,90.70
2023-04-03T00:37:25.483Z,90.85
2023-04-03T00:41:50.391Z,91.24
2023-04-03T00:46:12.745Z,91.05
2023-04-03T00:50:34.775Z,90.73
2023-04-03T00:54:58.599Z,90.77
2023-04-03T00:59:13.789Z,90.65
2023-04-03T01:03:41.379Z,90.49
2023-04-03T01:08:17.105Z,90.42
2023-04-03T01:12:28.471Z,89.87
2023-04-03T01:16:56.889Z,89.67
2023-04-03T01:21:25.996Z,90.04
2023-04-03T01:25:52.131Z,90.39
2023-04-03T01:30:00.730Z,90.35
2023-04-03T01:34:09.552Z,90.35
2023-04-03T01:38:23.810Z,90.34
2023-04-03T01:42:57.761Z,90.08
2023-04-03T01:47:21.800Z,89.84
2023-04-03T01:51:49.824Z,89.54
2023-04-03T01:56:23.410Z,89.75
2023-04-03T02:00:34.617Z,89.86
2023-04-03T02:05:05.931Z,90.36
2023-04-03T02:08:51.335Z,90.46
2023-04-03T02:13:12.507Z,90.92
2023-04-03T02:17:18.097Z,91.48
2023-04-03T02:21:46.150Z,91.53
2023-04-03T02:25:59.061Z,91.89
2023-04-03T02:30:22.697Z,92.10
2023-04-03T02:36:54.411Z,92.50
2023-04-03T02:40:58.470Z,92.70
2023-04-03T02:44:59.392Z,92.29
2023-04-03T02:49:19.905Z,92.67
2023-04-03T02:53:25.851Z,92.59
2023-04-03T02:57:35.469Z,92.08
2023-04-03T03:01:41.888Z,92.29
2023-04-03T03:05:45.186Z,92.43
2023-04-03T03:09:47.586Z,92.58
2023-04-03T03:13:46.860Z,92.63
2023-04-03T03:17:57.894Z,92.37
2023-04-03T03:22:00.541Z,92.36
2023-04-03T03:26:13.325Z,92.35
2023-04-03T03:30:17.761Z,92.56
2023-04-03T03:34:37.229Z,92.60
2023-04-03T03:38:21.687Z,92.21
2023-04-03T03:42:32.306Z,91.41
2023-04-03T03:46:56.741Z,90.98
2023-04-03T03:51:00.013Z,90.89
2023-04-03T03:55:02.913Z,90.31
2023-04-03T03:59:07.428Z,87.93
2023-04-03T04:02:40.932Z,87.60
2023-04-03T04:06:51.868Z,87.75
2023-04-03T04:10:49.607Z,87.39
2023-04-03T04:14:56.507Z,87.04
2023-04-03T04:19:01.410Z,87.38
2023-04-03T04:22:49.109Z,87.65
2023-04-03T04:26:52.779Z,87.44
2023-04-03T04:30:58.679Z,87.56
2023-04-03T04:35:01.209Z,87.29
2023-04-03T04:39:02.571Z,87.47
2023-04-03T04:43:14.160Z,88.54
2023-04-03T04:47:25.377Z,88.02
2023-04-03T04:51:35.188Z,88.24
2023-04-03T04:55:38.946Z,88.79
2023-04-03T04:59:40.668Z,88.10
2023-04-03T05:03:36.609Z,87.30
2023-04-03T05:07:39.126Z,86.26
2023-04-03T05:11:45.414Z,85.59
2023-04-03T05:15:51.916Z,85.11
2023-04-03T05:19:54.725Z,85.62
2023-04-03T05:24:01.572Z,84.49
2023-04-03T05:28:19.459Z,84.81
2023-04-03T05:32:26.986Z,85.11
2023-04-03T05:36:34.008Z,86.22
2023-04-03T05:40:38.171Z,86.63
2023-04-03T05:44:43.514Z,86.60
2023-04-03T05:48:48.777Z,86.27
2023-04-03T05:53:23.093Z,85.25
2023-04-03T05:57:29.194Z,85.13
2023-04-03T06:01:42.711Z,84.43
2023-04-03T06:05:49.552Z,84.92
2023-04-03T06:09:53.281Z,85.80
2023-04-03T06:14:08.751Z,85.49
2023-04-03T06:18:12.197Z,85.23
2023-04-03T06:22:33.348Z,84.88
2023-04-03T06:26:53.487Z,85.54
2023-04-03T06:30:45.672Z,84.99
2023-04-03T06:34:49.605Z,85.03
2023-04-03T06:39:00.543Z,84.38
2023-04-03T06:43:04.160Z,85.36
2023-04-03T06:47:09.224Z,85.06
2023-04-03T06:51:12.148Z,84.70
2023-04-03T06:55:21.582Z,84.16
2023-04-03T06:59:36.406Z,83.04
2023-04-03T07:03:59.443Z,83.37
2023-04-03T07:08:03.821Z,82.76
2023-04-03T07:12:08.464Z,81.54
2023-04-03T07:16:12.087Z,80.56
2023-04-03T07:20:41.886Z,79.77
2023-04-03T07:24:46.226Z,79.06
2023-04-03T07:28:50.304Z,76.86
2023-04-03T07:33:14.477Z,75.84
2023-04-03T07:37:21.301Z,76.02
2023-04-03T07:41:28.648Z,74.56
2023-04-03T07:45:36.033Z,75.27
2023-04-03T07:49:20.611Z,74.93
2023-04-03T07:53:23.897Z,73.12
2023-04-03T07:57:30.051Z,73.12
2023-04-03T08:00:47.198Z,73.45
2023-04-03T08:04:58.282Z,70.86
2023-04-03T08:09:03.020Z,71.62
2023-04-03T08:12:59.784Z,69.30
2023-04-03T08:17:09.735Z,70.29
2023-04-03T08:21:12.491Z,70.96
2023-04-03T08:25:15.224Z,70.20
2023-04-03T08:29:14.020Z,69.70
2023-04-03T08:33:09.402Z,68.75
2023-04-03T08:37:17.973Z,68.22
2023-04-03T08:41:19.843Z,66.76
2023-04-03T08:45:08.093Z,64.01
2023-04-03T08:49:20.930Z,62.97
2023-04-03T08:53:23.884Z,63.07
2023-04-03T08:57:22.016Z,62.65
2023-04-03T09:01:41.115Z,63.95
2023-04-03T09:05:45.306Z,63.21
2023-04-03T09:09:53.766Z,63.67
2023-04-03T09:14:01.994Z,59.03
2023-04-03T09:18:16.290Z,57.71
2023-04-03T09:22:14.972Z,55.28
2023-04-03T09:26:18.060Z,56.39
2023-04-03T09:30:20.718Z,53.71
2023-04-03T09:34:23.161Z,53.53
2023-04-03T09:38:22.581Z,51.64
2023-04-03T09:42:36.638Z,51.43
2023-04-03T09:46:57.176Z,52.96
2023-04-03T09:51:09.149Z,51.03
2023-04-03T09:55:05.538Z,51.00
2023-04-03T09:59:14.021Z,50.99
2023-04-03T10:03:09.076Z,48.72
2023-04-03T10:07:13.152Z,47.50
2023-04-03T10:11:12.259Z,47.71
2023-04-03T10:15:19.260Z,48.08
2023-04-03T10:19:46.463Z,49.57
2023-04-03T10:23:53.622Z,50.30
2023-04-03T10:28:14.593Z,48.54
2023-04-03T10:32:40.326Z,45.16
2023-04-03T10:36:49.719Z,46.00
2023-04-03T10:41:00.134Z,45.92
2023-04-03T10:45:13.108Z,45.06
2023-04-03T10:49:34.064Z,46.64
2023-04-03T10:53:41.099Z,45.55
2023-04-03T10:58:04.080Z,46.81
2023-04-03T11:02:09.550Z,45.32
2023-04-03T11:06:30.736Z,47.10
2023-04-03T11:10:37.659Z,45.99
2023-04-03T11:15:01.705Z,47.99
2023-04-03T11:19:03.945Z,46.78
2023-04-03T11:23:06.165Z,46.77
2023-04-03T11:27:07.826Z,45.90
2023-04-03T11:31:14.364Z,46.98
2023-04-03T11:35:25.005Z,47.08
2023-04-03T11:39:31.921Z,46.11
2023-04-03T11:43:41.268Z,44.35
2023-04-03T11:47:54.942Z,44.56
2023-04-03T11:52:00.229Z,45.18
2023-04-03T11:56:13.457Z,45.69
2023-04-03T12:00:19.825Z,45.88
2023-04-03T12:04:25.533Z,46.40
2023-04-03T12:08:32.120Z,47.28
2023-04-03T12:13:06.193Z,47.60
2023-04-03T12:17:11.766Z,46.28
2023-04-03T12:21:32.201Z,45.91
2023-04-03T12:25:35.975Z,46.28
2023-04-03T12:29:42.182Z,44.54
2023-04-03T12:34:05.794Z,45.81
2023-04-03T12:38:16.189Z,46.33
2023-04-03T12:42:25.145Z,45.78
2023-04-03T12:46:37.018Z,45.02
2023-04-03T12:51:06.242Z,45.14
2023-04-03T12:55:28.870Z,45.91
2023-04-03T12:59:39.531Z,44.23
2023-04-03T13:03:58.846Z,45.53
2023-04-03T13:08:21.982Z,43.77
2023-04-03T13:11:59.340Z,42.35
2023-04-03T13:16:09.610Z,42.06
2023-04-03T13:20:40.187Z,40.34
2023-04-03T13:24:45.413Z,40.38
2023-04-03T13:29:08.311Z,40.61
2023-04-03T13:33:18.847Z,40.85
2023-04-03T13:37:25.463Z,40.37
2023-04-03T13:41:31.130Z,40.80
2023-04-03T13:46:10.883Z,41.35
2023-04-03T13:50:45.501Z,40.45
2023-04-03T13:55:07.872Z,41.83
2023-04-03T13:59:13.667Z,42.99
2023-04-03T14:03:20.936Z,42.98
2023-04-03T14:07:43.538Z,44.35
2023-04-03T14:12:05.332Z,42.76
2023-04-03T14:16:16.182Z,40.90
2023-04-03T14:20:24.340Z,40.82
2023-04-03T14:24:30.472Z,41.16
2023-04-03T14:28:39.966Z,39.25
2023-04-03T14:33:03.858Z,39.65
2023-04-03T14:37:16.046Z,41.09
2023-04-03T14:41:27.065Z,41.34
2023-04-03T14:45:50.469Z,42.24
2023-04-03T14:50:14.949Z,41.17
2023-04-03T14:54:17.673Z,40.57
2023-04-03T14:58:38.719Z,40.36
2023-04-03T15:02:42.395Z,39.83
2023-04-03T15:07:08.442Z,40.01
2023-04-03T15:11:15.953Z,41.32
2023-04-03T15:15:27.030Z,40.51
2023-04-03T15:19:49.689Z,41.16
2023-04-03T15:24:04.653Z,42.52
2023-04-03T15:28:25.933Z,43.27
2023-04-03T15:32:31.313Z,44.06
2023-04-03T15:36:39.226Z,44.58
2023-04-03T15:40:58.872Z,45.33
2023-04-03T15:45:25.760Z,46.14
2023-04-03T15:49:56.141Z,45.30
2023-04-03T15:54:18.883Z,45.92
2023-04-03T15:58:42.416Z,45.42
2023-04-03T16:03:01.827Z,45.19
2023-04-03T16:07:44.403Z,45.02
2023-04-03T16:11:53.078Z,45.16
2023-04-03T16:16:15.774Z,45.90
2023-04-03T16:20:37.559Z,46.17
2023-04-03T16:24:43.512Z,46.64
2023-04-03T16:29:16.009Z,47.18
2023-04-03T16:33:19.157Z,47.85
2023-04-03T16:37:38.569Z,47.48
2023-04-03T16:42:08.851Z,47.43
2023-04-03T16:46:27.649Z,47.55
2023-04-03T16:50:50.810Z,47.98
2023-04-03T16:54:42.071Z,48.23
2023-04-03T16:59:24.823Z,48.18
2023-04-03T17:03:43.756Z,48.36
2023-04-03T17:08:03.806Z,48.64
2023-04-03T17:12:07.759Z,49.11
2023-04-03T17:16:35.004Z,49.20
2023-04-03T17:20:50.280Z,49.28
2023-04-03T17:25:04.694Z,49.52
2023-04-03T17:29:10.652Z,49.81
2023-04-03T17:33:41.486Z,49.99
2023-04-03T17:38:05.813Z,50.55
2023-04-03T17:42:09.677Z,51.11
2023-04-03T17:46:28.489Z,51.17
2023-04-03T17:50:31.968Z,51.74
2023-04-03T17:54:55.483Z,52.30
2023-04-03T17:59:16.853Z,52.56
2023-04-03T18:04:00.649Z,52.51
2023-04-03T18:08:24.659Z,53.00
2023-04-03T18:12:28.681Z,53.29
2023-04-03T18:16:36.581Z,52.98
2023-04-03T18:20:43.739Z,53.18
2023-04-03T18:25:07.576Z,52.86
2023-04-03T18:29:30.902Z,52.08
2023-04-03T18:37:23.634Z,53.04
2023-04-03T18:41:55.021Z,53.64
2023-04-03T18:46:07.436Z,53.63
2023-04-03T18:50:46.472Z,53.91
2023-04-03T18:55:19.815Z,54.38
2023-04-03T18:59:51.583Z,53.63
2023-04-03T19:04:11.275Z,54.68
2023-04-03T19:08:15.455Z,54.43
2023-04-03T19:12:47.495Z,55.13
2023-04-03T19:17:02.409Z,55.49
2023-04-03T19:21:37.053Z,56.25
2023-04-03T19:26:01.453Z,55.79
2023-04-03T19:30:19.705Z,55.79
2023-04-03T19:34:38.881Z,55.74
2023-04-03T19:39:06.015Z,56.49
2023-04-03T19:43:30.751Z,56.10
2023-04-03T19:48:15.415Z,56.39
2023-04-03T19:52:42.249Z,56.64
2023-04-03T19:57:10.317Z,56.78
2023-04-03T20:01:54.056Z,57.08
2023-04-03T20:06:05.053Z,57.15
2023-04-03T20:10:32.075Z,56.94
2023-04-03T20:14:38.533Z,57.06
2023-04-03T20:19:09.611Z,56.60
2023-04-03T20:23:33.448Z,57.58
2023-04-03T20:27:54.709Z,57.89
2023-04-03T20:32:21.832Z,57.99
2023-04-03T20:36:30.724Z,58.24
2023-04-03T20:40:37.035Z,58.64
2023-04-03T20:45:03.504Z,58.69
2023-04-03T20:49:31.420Z,59.25
2023-04-03T20:53:59.763Z,59.27
2023-04-03T20:58:09.752Z,59.49
2023-04-03T21:02:41.828Z,59.54
2023-04-03T21:07:25.105Z,59.63
2023-04-03T21:12:06.939Z,60.13
2023-04-03T21:16:33.052Z,60.38
2023-04-03T21:21:04.419Z,60.69
2023-04-03T21:25:10.110Z,60.63
2023-04-03T21:29:41.921Z,60.84
2023-04-03T21:34:02.914Z,61.34
2023-04-03T21:38:25.505Z,61.35
2023-04-03T21:42:33.904Z,61.17
2023-04-03T21:46:59.879Z,61.34
2023-04-03T21:51:45.363Z,61.25
2023-04-03T21:56:11.043Z,61.60
2023-04-03T22:00:43.244Z,61.75
2023-04-03T22:04:50.200Z,61.93
2023-04-03T22:09:35.053Z,61.98
2023-04-03T22:14:03.023Z,62.52
2023-04-03T22:18:31.008Z,62.85
2023-04-03T22:22:45.536Z,62.90
2023-04-03T22:27:13.131Z,62.88
2023-04-03T22:31:25.904Z,63.91
2023-04-03T22:36:09.696Z,64.24
2023-04-03T22:40:20.668Z,64.40
2023-04-03T22:44:44.641Z,64.81
2023-04-03T22:48:49.062Z,65.41
2023-04-03T22:53:28.682Z,66.58
2023-04-03T22:58:00.775Z,67.15
2023-04-03T23:02:25.141Z,67.66
2023-04-03T23:06:52.844Z,68.09
2023-04-03T23:11:28.969Z,69.01
2023-04-03T23:15:57.238Z,69.26
2023-04-03T23:20:18.380Z,69.88
2023-04-03T23:24:25.201Z,69.95
2023-04-03T23:28:51.301Z,70.75
2023-04-03T23:33:11.817Z,71.27
2023-04-03T23:37:40.761Z,71.79
2023-04-03T23:42:01.261Z,71.99
2023-04-03T23:46:05.067Z,72.43
2023-04-03T23:50:24.463Z,72.71
2023-04-03T23:54:46.306Z,72.85
2023-04-03T23:59:17.957Z,73.03
